createdAt,value
2023-01-01T00:00:50.131Z,65.77
2023-01-01T00:03:18.127Z,45.23
2023-01-01T00:05:45.956Z,42.73
2023-01-01T00:08:13.938Z,41.87
2023-01-01T00:10:41.799Z,41.90
2023-01-01T00:13:09.878Z,39.80
2023-01-01T00:15:37.748Z,41.80
2023-01-01T00:18:05.822Z,44.30
2023-01-01T00:20:35.527Z,44.10
2023-01-01T00:23:03.831Z,44.57
2023-01-01T00:25:33.673Z,42.67
2023-01-01T00:28:02.165Z,43.57
2023-01-01T00:30:30.161Z,43.20
2023-01-01T00:32:58.163Z,46.50
2023-01-01T00:35:26.551Z,81.37
2023-01-01T00:37:55.031Z,103.13
2023-01-01T00:40:23.151Z,99.50
2023-01-01T00:42:51.119Z,115.97
2023-01-01T00:45:22.265Z,122.80
2023-01-01T00:47:53.507Z,126.23
2023-01-01T00:50:22.192Z,121.90
2023-01-01T00:52:50.412Z,123.90
2023-01-01T00:55:18.418Z,129.33
2023-01-01T00:57:46.354Z,125.93
2023-01-01T01:00:15.146Z,125.53
2023-01-01T01:02:43.100Z,127.63
2023-01-01T01:05:11.433Z,133.37
2023-01-01T01:07:39.930Z,149.33
2023-01-01T01:10:08.329Z,141.77
2023-01-01T01:12:36.700Z,186.13
2023-01-01T01:15:05.380Z,178.53
2023-01-01T01:17:33.379Z,191.07
2023-01-01T01:20:05.891Z,195.30
2023-01-01T01:22:35.817Z,168.77
2023-01-01T01:25:03.686Z,160.80
2023-01-01T01:27:31.717Z,131.10
2023-01-01T01:29:59.559Z,110.20
2023-01-01T01:32:32.137Z,111.30
2023-01-01T01:35:00.127Z,102.30
2023-01-01T01:37:28.029Z,91.37
2023-01-01T01:39:55.881Z,87.17
2023-01-01T01:42:23.814Z,84.57
2023-01-01T01:45:00.432Z,85.17
2023-01-01T01:47:39.176Z,84.83
2023-01-01T01:50:11.606Z,86.23
2023-01-01T01:52:40.628Z,83.53
2023-01-01T01:55:09.270Z,87.40
2023-01-01T01:57:38.288Z,86.67
2023-01-01T02:00:10.934Z,86.17
2023-01-01T02:03:07.752Z,88.77
2023-01-01T02:05:40.257Z,96.17
2023-01-01T02:08:08.567Z,89.00
2023-01-01T02:10:36.572Z,92.87
2023-01-01T02:13:04.516Z,90.90
2023-01-01T02:15:35.833Z,81.77
2023-01-01T02:18:07.852Z,67.67
2023-01-01T02:20:59.640Z,54.13
2023-01-01T02:23:59.455Z,51.30
2023-01-01T02:26:45.662Z,51.60
2023-01-01T02:29:33.079Z,57.53
2023-01-01T02:32:09.947Z,59.40
2023-01-01T02:34:44.664Z,60.03
2023-01-01T02:37:14.716Z,83.07
2023-01-01T02:39:46.975Z,88.50
2023-01-01T02:42:14.931Z,88.70
2023-01-01T02:44:47.760Z,82.97
2023-01-01T02:47:17.967Z,77.83
2023-01-01T02:49:54.833Z,73.10
2023-01-01T02:52:38.297Z,75.73
2023-01-01T02:55:09.131Z,72.87
2023-01-01T02:57:42.999Z,77.20
2023-01-01T03:00:25.539Z,79.20
2023-01-01T03:03:20.896Z,79.83
2023-01-01T03:06:16.032Z,78.50
2023-01-01T03:08:48.700Z,80.57
2023-01-01T03:11:21.328Z,78.67
2023-01-01T03:13:59.416Z,76.60
2023-01-01T03:16:32.991Z,73.57
2023-01-01T03:19:12.866Z,71.27
2023-01-01T03:21:49.931Z,68.80
2023-01-01T03:24:27.264Z,63.90
2023-01-01T03:26:58.430Z,61.00
2023-01-01T03:29:30.893Z,59.27
2023-01-01T03:31:59.419Z,55.73
2023-01-01T03:34:31.999Z,56.77
2023-01-01T03:37:04.592Z,57.83
2023-01-01T03:39:38.746Z,58.53
2023-01-01T03:42:11.497Z,58.57
2023-01-01T03:44:53.970Z,60.97
2023-01-01T03:47:21.905Z,61.40
2023-01-01T03:49:50.468Z,63.07
2023-01-01T03:52:38.479Z,61.07
2023-01-01T03:55:30.450Z,63.23
2023-01-01T03:58:36.616Z,65.67
2023-01-01T04:01:09.119Z,66.93
2023-01-01T04:03:41.745Z,65.93
2023-01-01T04:06:10.807Z,61.90
2023-01-01T04:08:39.020Z,57.67
2023-01-01T04:11:30.984Z,59.33
2023-01-01T04:13:58.861Z,58.53
2023-01-01T04:16:26.967Z,56.27
2023-01-01T04:18:54.960Z,51.17
2023-01-01T04:21:27.438Z,51.30
2023-01-01T04:23:55.321Z,51.20
2023-01-01T04:26:23.246Z,51.13
2023-01-01T04:28:51.144Z,52.40
2023-01-01T04:31:23.555Z,51.10
2023-01-01T04:33:55.100Z,50.33
2023-01-01T04:36:22.994Z,51.77
2023-01-01T04:38:50.908Z,50.27
2023-01-01T04:41:18.781Z,50.37
2023-01-01T04:43:55.284Z,50.33
2023-01-01T04:46:23.462Z,50.33
2023-01-01T04:48:51.515Z,51.27
2023-01-01T04:51:20.347Z,54.13
2023-01-01T04:53:48.304Z,56.63
2023-01-01T04:56:21.076Z,58.37
2023-01-01T04:58:49.042Z,55.97
2023-01-01T05:01:22.121Z,57.27
2023-01-01T05:03:50.182Z,59.00
2023-01-01T05:06:18.079Z,60.47
2023-01-01T05:08:47.948Z,57.70
2023-01-01T05:11:21.804Z,56.57
2023-01-01T05:13:51.985Z,57.50
2023-01-01T05:16:21.529Z,56.87
2023-01-01T05:18:49.863Z,56.70
2023-01-01T05:21:22.240Z,55.23
2023-01-01T05:23:50.093Z,54.13
2023-01-01T05:26:21.235Z,52.80
2023-01-01T05:28:49.127Z,51.07
2023-01-01T05:31:21.753Z,48.83
2023-01-01T05:33:50.403Z,41.47
2023-01-01T05:36:32.157Z,29.17
2023-01-01T05:39:00.124Z,25.83
2023-01-01T05:41:28.196Z,23.13
2023-01-01T05:43:56.064Z,5.33
2023-01-01T05:46:25.131Z,2.27
2023-01-01T05:48:54.168Z,1.90
2023-01-01T05:51:26.623Z,1.43
2023-01-01T05:53:54.896Z,1.30
2023-01-01T05:56:22.833Z,1.30
2023-01-01T05:58:50.758Z,1.60
2023-01-01T06:01:19.720Z,1.90
2023-01-01T06:03:49.972Z,1.80
2023-01-01T06:06:22.733Z,2.00
2023-01-01T06:08:55.131Z,1.30
2023-01-01T06:11:23.287Z,1.40
2023-01-01T06:14:05.562Z,1.20
2023-01-01T06:16:33.884Z,1.40
2023-01-01T06:19:01.873Z,1.30
2023-01-01T06:21:34.480Z,1.20
2023-01-01T06:24:02.637Z,1.50
2023-01-01T06:26:32.052Z,1.10
2023-01-01T06:29:00.464Z,1.33
2023-01-01T06:31:28.767Z,1.40
2023-01-01T06:33:56.682Z,1.10
2023-01-01T06:36:25.286Z,1.10
2023-01-01T06:38:54.296Z,1.40
2023-01-01T06:41:25.953Z,1.23
2023-01-01T06:43:55.737Z,1.00
2023-01-01T06:46:30.867Z,1.17
2023-01-01T06:49:03.958Z,1.10
2023-01-01T06:51:33.629Z,1.17
2023-01-01T06:54:02.498Z,1.10
2023-01-01T06:56:30.343Z,1.00
2023-01-01T06:58:58.585Z,0.90
2023-01-01T07:01:28.225Z,1.13
2023-01-01T07:03:56.754Z,1.03
2023-01-01T07:06:24.990Z,1.00
2023-01-01T07:08:52.953Z,1.00
2023-01-01T07:11:26.631Z,0.90
2023-01-01T07:13:54.903Z,1.10
2023-01-01T07:16:23.239Z,1.10
2023-01-01T07:18:51.960Z,0.90
2023-01-01T07:21:37.858Z,0.88
2023-01-01T07:24:06.698Z,1.30
2023-01-01T07:26:39.718Z,1.00
2023-01-01T07:29:08.418Z,0.87
2023-01-01T07:31:40.891Z,1.00
2023-01-01T07:34:10.572Z,0.87
2023-01-01T07:36:38.522Z,1.30
2023-01-01T07:39:06.452Z,1.10
2023-01-01T07:41:34.422Z,0.93
2023-01-01T07:44:02.318Z,0.82
2023-01-01T07:46:30.567Z,1.50
2023-01-01T07:48:58.570Z,1.30
2023-01-01T07:51:26.556Z,1.12
2023-01-01T07:53:54.795Z,1.40
2023-01-01T07:56:22.783Z,1.00
2023-01-01T07:58:50.635Z,1.00
2023-01-01T08:01:18.596Z,1.17
2023-01-01T08:03:51.205Z,0.90
2023-01-01T08:06:19.217Z,1.10
2023-01-01T08:08:47.375Z,1.60
2023-01-01T08:11:20.092Z,1.33
2023-01-01T08:13:48.039Z,1.60
2023-01-01T08:16:20.749Z,1.95
2023-01-01T08:18:48.840Z,2.05
2023-01-01T08:21:16.808Z,2.15
2023-01-01T08:23:44.869Z,1.83
2023-01-01T08:26:17.561Z,2.17
2023-01-01T08:28:45.741Z,3.83
2023-01-01T08:31:13.602Z,9.07
2023-01-01T08:33:43.305Z,8.90
2023-01-01T08:36:12.210Z,9.07
2023-01-01T08:38:40.126Z,8.95
2023-01-01T08:41:20.285Z,11.05
2023-01-01T08:43:48.095Z,11.52
2023-01-01T08:46:16.019Z,11.68
2023-01-01T08:48:48.737Z,12.18
2023-01-01T08:51:16.878Z,11.93
2023-01-01T08:53:50.655Z,13.18
2023-01-01T08:56:21.921Z,12.55
2023-01-01T08:58:50.505Z,13.00
2023-01-01T09:01:23.181Z,13.00
2023-01-01T09:03:51.428Z,12.98
2023-01-01T09:06:19.192Z,13.15
2023-01-01T09:08:47.045Z,13.50
2023-01-01T09:11:28.605Z,14.30
2023-01-01T09:13:56.563Z,13.52
2023-01-01T09:16:24.575Z,14.93
2023-01-01T09:19:04.856Z,13.60
2023-01-01T09:21:32.966Z,14.47
2023-01-01T09:24:00.819Z,14.00
2023-01-01T09:26:28.922Z,13.33
2023-01-01T09:28:56.887Z,4.53
2023-01-01T09:31:25.019Z,2.35
2023-01-01T09:33:52.992Z,0.90
2023-01-01T09:36:23.593Z,1.02
2023-01-01T09:38:52.053Z,0.85
2023-01-01T09:41:33.878Z,0.75
2023-01-01T09:44:04.681Z,1.23
2023-01-01T09:46:34.857Z,1.20
2023-01-01T09:49:06.315Z,1.08
2023-01-01T09:51:39.912Z,1.20
2023-01-01T09:54:28.781Z,1.12
2023-01-01T09:56:59.090Z,1.20
2023-01-01T09:59:27.391Z,1.05
2023-01-01T10:02:06.640Z,1.45
2023-01-01T10:04:51.269Z,0.88
2023-01-01T10:07:33.414Z,0.90
2023-01-01T10:10:45.899Z,1.20
2023-01-01T10:13:17.338Z,1.10
2023-01-01T10:16:05.444Z,1.10
2023-01-01T10:18:35.089Z,1.12
2023-01-01T10:21:11.339Z,1.80
2023-01-01T10:23:49.001Z,2.47
2023-01-01T10:26:22.930Z,1.23
2023-01-01T10:29:07.747Z,1.00
2023-01-01T10:31:37.452Z,1.02
2023-01-01T10:34:27.672Z,3.90
2023-01-01T10:37:00.437Z,6.40
2023-01-01T10:39:28.376Z,6.10
2023-01-01T10:44:39.080Z,6.93
2023-01-01T10:47:30.750Z,6.72
2023-01-01T10:50:06.567Z,7.20
2023-01-01T10:52:38.932Z,7.55
2023-01-01T10:55:07.933Z,7.55
2023-01-01T10:57:45.945Z,6.93
2023-01-01T11:00:20.258Z,5.53
2023-01-01T11:02:48.201Z,6.82
2023-01-01T11:05:22.697Z,6.05
2023-01-01T11:07:51.108Z,6.12
2023-01-01T11:10:23.933Z,6.43
2023-01-01T11:13:07.839Z,7.32
2023-01-01T11:15:40.475Z,7.78
2023-01-01T11:18:21.824Z,7.80
2023-01-01T11:20:56.700Z,8.43
2023-01-01T11:23:36.141Z,8.38
2023-01-01T11:26:20.044Z,8.65
2023-01-01T11:29:29.311Z,8.00
2023-01-01T11:32:07.975Z,8.32
2023-01-01T11:34:49.787Z,6.85
2023-01-01T11:37:25.967Z,8.10
2023-01-01T11:39:54.427Z,8.00
2023-01-01T11:42:34.119Z,8.63
2023-01-01T11:45:04.901Z,8.70
2023-01-01T11:47:37.039Z,8.45
2023-01-01T11:50:29.724Z,8.27
2023-01-01T11:53:02.070Z,7.97
2023-01-01T11:55:39.466Z,7.47
2023-01-01T11:58:19.167Z,8.32
2023-01-01T12:00:54.241Z,7.85
2023-01-01T12:03:33.617Z,8.25
2023-01-01T12:06:11.336Z,7.57
2023-01-01T12:08:55.419Z,8.23
2023-01-01T12:11:39.148Z,7.68
2023-01-01T12:14:32.694Z,7.07
2023-01-01T12:17:11.485Z,7.45
2023-01-01T12:20:00.634Z,6.57
2023-01-01T12:22:33.643Z,6.32
2023-01-01T12:25:01.543Z,6.47
2023-01-01T12:27:46.718Z,6.30
2023-01-01T12:30:20.559Z,6.68
2023-01-01T12:33:08.610Z,6.37
2023-01-01T12:36:02.835Z,6.45
2023-01-01T12:38:33.745Z,6.53
2023-01-01T12:41:42.100Z,6.72
2023-01-01T12:44:19.072Z,7.60
2023-01-01T12:46:50.475Z,7.50
2023-01-01T12:49:37.813Z,7.70
2023-01-01T12:52:15.980Z,7.45
2023-01-01T12:55:24.467Z,8.13
2023-01-01T12:58:30.231Z,7.60
2023-01-01T13:01:03.006Z,6.87
2023-01-01T13:03:50.724Z,7.70
2023-01-01T13:06:28.633Z,7.07
2023-01-01T13:09:01.031Z,7.03
2023-01-01T13:11:29.564Z,6.68
2023-01-01T13:13:57.567Z,6.78
2023-01-01T13:16:42.885Z,6.55
2023-01-01T13:19:33.405Z,6.78
2023-01-01T13:22:30.458Z,6.75
2023-01-01T13:25:15.132Z,6.22
2023-01-01T13:28:02.687Z,6.80
2023-01-01T13:30:36.795Z,6.10
2023-01-01T13:33:34.947Z,5.53
2023-01-01T13:36:28.663Z,4.60
2023-01-01T13:38:59.384Z,6.35
2023-01-01T13:41:32.222Z,5.78
2023-01-01T13:44:04.354Z,5.47
2023-01-01T13:46:44.626Z,4.10
2023-01-01T13:49:31.203Z,4.50
2023-01-01T13:52:05.784Z,4.30
2023-01-01T13:54:52.866Z,3.70
2023-01-01T13:57:54.689Z,3.60
2023-01-01T14:00:24.070Z,4.00
2023-01-01T14:03:03.981Z,3.92
2023-01-01T14:05:44.700Z,3.53
2023-01-01T14:08:34.860Z,4.12
2023-01-01T14:11:03.531Z,3.80
2023-01-01T14:13:34.833Z,4.00
2023-01-01T14:16:03.941Z,3.78
2023-01-01T14:18:40.571Z,3.50
2023-01-01T14:21:19.772Z,3.40
2023-01-01T14:23:56.704Z,3.72
2023-01-01T14:26:29.219Z,3.70
2023-01-01T14:29:01.216Z,3.65
2023-01-01T14:31:33.271Z,3.58
2023-01-01T14:34:05.832Z,3.28
2023-01-01T14:36:33.920Z,3.97
2023-01-01T14:39:06.557Z,3.80
2023-01-01T14:41:39.205Z,3.75
2023-01-01T14:44:13.014Z,3.97
2023-01-01T14:46:41.750Z,4.03
2023-01-01T14:49:16.747Z,5.10
2023-01-01T14:51:46.819Z,3.95
2023-01-01T14:54:21.015Z,3.85
2023-01-01T14:56:53.687Z,3.15
2023-01-01T14:59:51.359Z,3.70
2023-01-01T15:02:27.301Z,3.80
2023-01-01T15:04:55.269Z,4.40
2023-01-01T15:07:31.094Z,4.22
2023-01-01T15:10:05.449Z,4.37
2023-01-01T15:12:35.224Z,4.47
2023-01-01T15:15:03.141Z,4.62
2023-01-01T15:17:46.011Z,4.70
2023-01-01T15:20:25.747Z,4.70
2023-01-01T15:22:55.978Z,5.03
2023-01-01T15:25:23.869Z,5.62
2023-01-01T15:27:53.536Z,5.30
2023-01-01T15:30:29.207Z,5.07
2023-01-01T15:33:01.840Z,5.17
2023-01-01T15:35:32.454Z,4.57
2023-01-01T15:38:15.717Z,4.90
2023-01-01T15:40:51.079Z,4.53
2023-01-01T15:43:24.298Z,5.27
2023-01-01T15:46:19.984Z,4.80
2023-01-01T15:48:52.358Z,5.50
2023-01-01T15:51:20.855Z,5.10
2023-01-01T15:53:53.011Z,4.90
2023-01-01T15:56:21.267Z,5.37
2023-01-01T15:59:15.244Z,4.73
2023-01-01T16:01:43.224Z,4.90
2023-01-01T16:04:29.611Z,4.90
2023-01-01T16:06:58.389Z,4.63
2023-01-01T16:09:26.436Z,6.33
2023-01-01T16:11:55.500Z,9.27
2023-01-01T16:14:23.809Z,7.50
2023-01-01T16:16:57.533Z,5.50
2023-01-01T16:19:25.682Z,5.83
2023-01-01T16:21:58.779Z,5.90
2023-01-01T16:24:26.856Z,5.57
2023-01-01T16:26:54.736Z,5.70
2023-01-01T16:29:22.565Z,6.53
2023-01-01T16:31:52.043Z,6.40
2023-01-01T16:34:24.624Z,5.60
2023-01-01T16:36:52.484Z,5.93
2023-01-01T16:39:22.636Z,5.87
2023-01-01T16:41:50.885Z,6.63
2023-01-01T16:44:18.842Z,6.00
2023-01-01T16:46:46.915Z,6.60
2023-01-01T16:49:14.768Z,6.73
2023-01-01T16:51:44.047Z,6.70
2023-01-01T16:54:12.221Z,6.53
2023-01-01T16:56:40.100Z,6.60
2023-01-01T16:59:07.914Z,6.73
2023-01-01T17:01:36.001Z,6.83
2023-01-01T17:04:03.960Z,7.40
2023-01-01T17:06:31.947Z,7.20
2023-01-01T17:09:02.704Z,7.10
2023-01-01T17:11:30.944Z,7.37
2023-01-01T17:14:00.841Z,7.57
2023-01-01T17:16:38.775Z,12.07
2023-01-01T17:19:16.753Z,13.53
2023-01-01T17:21:46.092Z,18.60
2023-01-01T17:24:14.473Z,24.60
2023-01-01T17:26:42.799Z,47.53
2023-01-01T17:29:10.744Z,36.67
2023-01-01T17:31:38.747Z,51.80
2023-01-01T17:34:07.204Z,53.30
2023-01-01T17:36:37.108Z,30.73
2023-01-01T17:39:05.091Z,27.83
2023-01-01T17:41:32.912Z,33.67
2023-01-01T17:44:00.851Z,32.47
2023-01-01T17:46:31.138Z,30.70
2023-01-01T17:48:59.107Z,24.73
2023-01-01T17:51:27.554Z,26.47
2023-01-01T17:53:56.367Z,23.43
2023-01-01T17:56:24.648Z,24.33
2023-01-01T17:58:53.598Z,19.43
2023-01-01T18:01:24.642Z,18.43
2023-01-01T18:03:57.315Z,17.20
2023-01-01T18:06:25.333Z,19.23
2023-01-01T18:08:57.735Z,15.80
2023-01-01T18:11:26.420Z,15.60
2023-01-01T18:13:54.410Z,15.63
2023-01-01T18:16:22.381Z,14.40
2023-01-01T18:18:50.291Z,13.30
2023-01-01T18:21:22.068Z,11.60
2023-01-01T18:23:51.246Z,11.83
2023-01-01T18:26:19.252Z,10.53
2023-01-01T18:28:47.249Z,11.57
2023-01-01T18:31:16.293Z,11.07
2023-01-01T18:33:44.424Z,11.83
2023-01-01T18:36:16.159Z,11.77
2023-01-01T18:38:46.406Z,10.37
2023-01-01T18:41:36.372Z,10.47
2023-01-01T18:44:04.215Z,12.97
2023-01-01T18:46:32.120Z,12.37
2023-01-01T18:49:00.115Z,11.40
2023-01-01T18:51:28.223Z,7.50
2023-01-01T18:53:57.803Z,6.57
2023-01-01T18:56:26.769Z,7.40
2023-01-01T18:58:56.023Z,6.63
2023-01-01T19:01:24.766Z,6.77
2023-01-01T19:03:56.012Z,6.30
2023-01-01T19:06:27.932Z,6.23
2023-01-01T19:08:59.269Z,7.23
2023-01-01T19:11:27.205Z,7.50
2023-01-01T19:13:55.127Z,7.43
2023-01-01T19:16:27.674Z,8.60
2023-01-01T19:18:55.868Z,7.87
2023-01-01T19:21:24.904Z,7.77
2023-01-01T19:23:53.542Z,8.63
2023-01-01T19:26:35.376Z,8.50
2023-01-01T19:29:20.383Z,8.27
2023-01-01T19:31:56.782Z,8.50
2023-01-01T19:34:25.105Z,8.50
2023-01-01T19:36:53.296Z,7.57
2023-01-01T19:39:21.165Z,8.17
2023-01-01T19:41:49.085Z,9.30
2023-01-01T19:44:22.935Z,7.73
2023-01-01T19:46:52.962Z,8.03
2023-01-01T19:49:20.928Z,6.47
2023-01-01T19:51:48.747Z,7.93
2023-01-01T19:54:16.605Z,6.20
2023-01-01T19:56:44.535Z,5.70
2023-01-01T19:59:12.415Z,6.10
2023-01-01T20:01:40.680Z,5.57
2023-01-01T20:04:08.785Z,6.77
2023-01-01T20:06:37.538Z,7.00
2023-01-01T20:09:05.437Z,6.17
2023-01-01T20:11:33.380Z,5.97
2023-01-01T20:14:01.298Z,6.53
2023-01-01T20:16:29.292Z,6.17
2023-01-01T20:18:57.220Z,6.53
2023-01-01T20:21:43.826Z,6.27
2023-01-01T20:24:12.223Z,5.93
2023-01-01T20:26:40.149Z,7.03
2023-01-01T20:29:23.244Z,6.90
2023-01-01T20:31:52.574Z,6.20
2023-01-01T20:34:20.715Z,6.57
2023-01-01T20:37:11.935Z,6.87
2023-01-01T20:39:40.033Z,7.07
2023-01-01T20:42:12.738Z,7.67
2023-01-01T20:44:43.987Z,7.13
2023-01-01T20:47:16.514Z,6.87
2023-01-01T20:49:44.848Z,7.63
2023-01-01T20:52:17.451Z,8.07
2023-01-01T20:54:53.762Z,7.90
2023-01-01T20:57:26.808Z,7.93
2023-01-01T20:59:54.738Z,7.13
2023-01-01T21:02:27.845Z,7.33
2023-01-01T21:05:00.929Z,7.00
2023-01-01T21:07:28.941Z,7.33
2023-01-01T21:09:57.039Z,7.40
2023-01-01T21:12:24.933Z,8.20
2023-01-01T21:14:58.058Z,7.60
2023-01-01T21:17:30.691Z,7.50
2023-01-01T21:19:58.613Z,8.13
2023-01-01T21:22:27.153Z,8.63
2023-01-01T21:25:23.992Z,8.43
2023-01-01T21:28:09.221Z,8.03
2023-01-01T21:31:02.529Z,8.13
2023-01-01T21:33:31.753Z,7.47
2023-01-01T21:36:00.246Z,8.77
2023-01-01T21:38:33.627Z,7.43
2023-01-01T21:41:01.707Z,8.00
2023-01-01T21:43:39.745Z,8.00
2023-01-01T21:46:07.686Z,7.23
2023-01-01T21:48:42.603Z,7.57
2023-01-01T21:51:42.696Z,7.70
2023-01-01T21:54:15.389Z,8.00
2023-01-01T21:56:53.057Z,8.37
2023-01-01T21:59:39.429Z,8.40
2023-01-01T22:02:07.545Z,7.37
2023-01-01T22:04:43.431Z,7.90
2023-01-01T22:10:30.954Z,8.27
2023-01-01T22:13:00.157Z,8.37
2023-01-01T22:15:31.921Z,8.70
2023-01-01T22:18:13.176Z,8.97
2023-01-01T22:20:43.113Z,8.67
2023-01-01T22:23:49.262Z,8.80
2023-01-01T22:26:23.218Z,8.50
2023-01-01T22:28:53.032Z,9.20
2023-01-01T22:31:25.139Z,8.80
2023-01-01T22:33:57.733Z,8.80
2023-01-01T22:36:27.473Z,8.77
2023-01-01T22:38:57.280Z,9.00
2023-01-01T22:41:30.132Z,8.67
2023-01-01T22:44:06.340Z,8.97
2023-01-01T22:46:38.448Z,8.43
2023-01-01T22:49:16.322Z,8.33
2023-01-01T22:51:44.973Z,8.13
2023-01-01T22:54:12.867Z,8.47
2023-01-01T22:56:40.848Z,8.83
2023-01-01T22:59:13.377Z,8.33
2023-01-01T23:01:41.519Z,9.03
2023-01-01T23:04:11.794Z,8.37
2023-01-01T23:06:39.869Z,8.60
2023-01-01T23:09:12.417Z,7.10
2023-01-01T23:11:40.323Z,7.40
2023-01-01T23:14:26.747Z,7.63
2023-01-01T23:16:54.714Z,7.77
2023-01-01T23:19:22.641Z,7.23
2023-01-01T23:21:51.973Z,7.27
2023-01-01T23:24:20.789Z,7.93
2023-01-01T23:26:48.751Z,7.47
2023-01-01T23:29:16.673Z,7.20
2023-01-01T23:31:44.664Z,7.20
2023-01-01T23:34:12.593Z,7.83
2023-01-01T23:36:43.846Z,7.70
2023-01-01T23:39:12.965Z,7.10
2023-01-01T23:41:41.755Z,7.17
2023-01-01T23:44:09.703Z,7.57
2023-01-01T23:46:38.334Z,7.13
2023-01-01T23:49:06.769Z,7.37
2023-01-01T23:51:35.084Z,7.90
2023-01-01T23:54:07.887Z,7.10
2023-01-01T23:56:35.829Z,6.73
2023-01-01T23:59:08.974Z,6.33
